Bordertown, Nevada
Current Conditions -  °F | °C
As of 5:35 PM on Friday 24 Oct 2014 (Local Time) from KRTS Reporting Station
Clear Clear  
Wind Chill: 21°   Ceiling: Unl
Heat Index: 21°   Visibility: 10mi
Dew Point: -8°   Wind: 15mph
Humidity: 14%   Direction: 240°WSW
Pressure: 29.98"   Gusts: 22mph
Location:  39.7378°N, 119.889°W
Report Text: KRTS 250035Z AUTO 24013G19KT 10SM CLR 21/M08 A2998 RMK AO2
Loading
Personal Weather Stations






























Interactive Weather Map
Tropical Storm Tracking
New forecast layout! Learn more

10-Day Weather Forecast

Advertisements
Track Severe Weather on mobile